sensor_id;sensor_type;location;lat;lon;timestamp;pressure;altitude;pressure_sealevel;temperature;humidity
60852;BME280;48553;50.766;2.900;2023-01-08T00:01:24;99545.47;;;8.64;95.53
60852;BME280;48553;50.766;2.900;2023-01-08T00:04:25;99552.09;;;8.63;95.69
60852;BME280;48553;50.766;2.900;2023-01-08T00:07:25;99543.91;;;8.63;95.83
60852;BME280;48553;50.766;2.900;2023-01-08T00:10:25;99546.63;;;8.63;95.96
60852;BME280;48553;50.766;2.900;2023-01-08T00:13:26;99543.47;;;8.61;95.74
60852;BME280;48553;50.766;2.900;2023-01-08T00:16:26;99523.91;;;8.59;95.89
60852;BME280;48553;50.766;2.900;2023-01-08T00:19:27;99522.28;;;8.58;95.86
60852;BME280;48553;50.766;2.900;2023-01-08T00:22:28;99525.41;;;8.56;95.86
60852;BME280;48553;50.766;2.900;2023-01-08T00:25:28;99534.81;;;8.59;96.09
60852;BME280;48553;50.766;2.900;2023-01-08T00:28:29;99537.56;;;8.59;96.09
60852;BME280;48553;50.766;2.900;2023-01-08T00:31:30;99523.44;;;8.57;95.95
60852;BME280;48553;50.766;2.900;2023-01-08T00:34:30;99524.94;;;8.54;96.29
60852;BME280;48553;50.766;2.900;2023-01-08T00:37:31;99512.88;;;8.55;96.19
60852;BME280;48553;50.766;2.900;2023-01-08T00:40:33;99530.41;;;8.54;96.07
60852;BME280;48553;50.766;2.900;2023-01-08T00:43:34;99526.09;;;8.53;96.33
60852;BME280;48553;50.766;2.900;2023-01-08T00:46:34;99524.94;;;8.54;96.26
60852;BME280;48553;50.766;2.900;2023-01-08T00:49:34;99515.97;;;8.54;96.44
60852;BME280;48553;50.766;2.900;2023-01-08T00:52:35;99513.59;;;8.52;96.42
60852;BME280;48553;50.766;2.900;2023-01-08T00:55:35;99505.06;;;8.54;96.43
60852;BME280;48553;50.766;2.900;2023-01-08T00:58:36;99513.59;;;8.52;96.65
60852;BME280;48553;50.766;2.900;2023-01-08T01:01:37;99503.44;;;8.53;96.34
60852;BME280;48553;50.766;2.900;2023-01-08T01:04:38;99504.94;;;8.50;96.23
60852;BME280;48553;50.766;2.900;2023-01-08T01:07:38;99507.34;;;8.52;96.40
60852;BME280;48553;50.766;2.900;2023-01-08T01:10:39;99508.03;;;8.49;96.54
60852;BME280;48553;50.766;2.900;2023-01-08T01:13:39;99495.97;;;8.50;96.20
60852;BME280;48553;50.766;2.900;2023-01-08T01:16:40;99498.59;;;8.46;96.34
60852;BME280;48553;50.766;2.900;2023-01-08T01:19:42;99497.81;;;8.46;96.17
60852;BME280;48553;50.766;2.900;2023-01-08T01:22:42;99495.53;;;8.48;96.27
60852;BME280;48553;50.766;2.900;2023-01-08T01:25:43;99497.81;;;8.46;96.15
60852;BME280;48553;50.766;2.900;2023-01-08T01:28:46;99495.09;;;8.46;96.23
60852;BME280;48553;50.766;2.900;2023-01-08T01:31:46;99485.22;;;8.41;96.07
60852;BME280;48553;50.766;2.900;2023-01-08T01:34:47;99490.34;;;8.43;95.87
60852;BME280;48553;50.766;2.900;2023-01-08T01:37:47;99489.19;;;8.44;96.03
60852;BME280;48553;50.766;2.900;2023-01-08T01:40:47;99488.25;;;8.40;95.79
60852;BME280;48553;50.766;2.900;2023-01-08T01:43:48;99482.72;;;8.36;95.65
60852;BME280;48553;50.766;2.900;2023-01-08T01:46:48;99485.53;;;8.40;95.52
60852;BME280;48553;50.766;2.900;2023-01-08T01:49:55;99497.97;;;8.37;95.83
60852;BME280;48553;50.766;2.900;2023-01-08T01:53:10;99490.94;;;8.36;95.85
60852;BME280;48553;50.766;2.900;2023-01-08T01:56:11;99502.19;;;8.34;95.74
60852;BME280;48553;50.766;2.900;2023-01-08T01:59:12;99489.25;;;8.31;95.58
60852;BME280;48553;50.766;2.900;2023-01-08T02:02:13;99496.63;;;8.31;95.53
60852;BME280;48553;50.766;2.900;2023-01-08T02:05:13;99496.19;;;8.29;95.35
60852;BME280;48553;50.766;2.900;2023-01-08T02:08:20;99497.34;;;8.28;95.18
60852;BME280;48553;50.766;2.900;2023-01-08T02:11:48;99491.44;;;8.26;95.12
60852;BME280;48553;50.766;2.900;2023-01-08T02:15:25;99494.88;;;8.23;94.91
60852;BME280;48553;50.766;2.900;2023-01-08T02:18:53;99502.63;;;8.21;94.53
60852;BME280;48553;50.766;2.900;2023-01-08T02:22:05;99494.31;;;8.17;94.50
60852;BME280;48553;50.766;2.900;2023-01-08T02:25:27;99485.00;;;8.18;94.34
60852;BME280;48553;50.766;2.900;2023-01-08T02:28:35;99499.72;;;8.13;94.22
60852;BME280;48553;50.766;2.900;2023-01-08T02:31:39;99482.88;;;8.11;93.86
60852;BME280;48553;50.766;2.900;2023-01-08T02:34:40;99483.56;;;8.08;93.68
60852;BME280;48553;50.766;2.900;2023-01-08T02:37:41;99474.25;;;8.09;93.97
60852;BME280;48553;50.766;2.900;2023-01-08T02:41:11;99490.19;;;8.07;93.45
60852;BME280;48553;50.766;2.900;2023-01-08T02:44:16;99479.16;;;8.04;93.68
60852;BME280;48553;50.766;2.900;2023-01-08T02:47:24;99478.38;;;8.03;93.67
60852;BME280;48553;50.766;2.900;2023-01-08T02:53:39;99484.19;;;8.02;93.66
60852;BME280;48553;50.766;2.900;2023-01-08T02:56:45;99476.25;;;7.97;93.30
60852;BME280;48553;50.766;2.900;2023-01-08T02:59:47;99488.06;;;8.01;93.42
60852;BME280;48553;50.766;2.900;2023-01-08T03:02:50;99484.44;;;7.97;93.13
60852;BME280;48553;50.766;2.900;2023-01-08T03:06:01;99493.78;;;7.95;93.14
60852;BME280;48553;50.766;2.900;2023-01-08T03:09:02;99488.31;;;7.95;93.33
60852;BME280;48553;50.766;2.900;2023-01-08T03:12:24;99486.72;;;7.94;93.30
60852;BME280;48553;50.766;2.900;2023-01-08T03:15:58;99485.84;;;7.90;92.91
60852;BME280;48553;50.766;2.900;2023-01-08T03:19:07;99489.38;;;7.91;93.28
60852;BME280;48553;50.766;2.900;2023-01-08T03:22:13;99487.31;;;7.88;93.20
60852;BME280;48553;50.766;2.900;2023-01-08T03:25:17;99481.44;;;7.86;93.43
60852;BME280;48553;50.766;2.900;2023-01-08T03:28:23;99477.13;;;7.85;93.44
60852;BME280;48553;50.766;2.900;2023-01-08T03:31:29;99484.84;;;7.83;93.10
60852;BME280;48553;50.766;2.900;2023-01-08T03:34:36;99475.88;;;7.82;93.23
60852;BME280;48553;50.766;2.900;2023-01-08T03:37:40;99479.06;;;7.84;93.17
60852;BME280;48553;50.766;2.900;2023-01-08T03:40:47;99468.41;;;7.79;92.96
60852;BME280;48553;50.766;2.900;2023-01-08T03:43:49;99470.31;;;7.79;92.88
60852;BME280;48553;50.766;2.900;2023-01-08T03:46:51;99473.84;;;7.79;92.98
60852;BME280;48553;50.766;2.900;2023-01-08T03:49:54;99471.13;;;7.79;92.76
60852;BME280;48553;50.766;2.900;2023-01-08T03:52:56;99478.88;;;7.77;92.79
60852;BME280;48553;50.766;2.900;2023-01-08T03:55:57;99471.34;;;7.74;92.51
60852;BME280;48553;50.766;2.900;2023-01-08T03:58:57;99467.84;;;7.73;92.91
60852;BME280;48553;50.766;2.900;2023-01-08T04:01:58;99465.03;;;7.70;92.77
60852;BME280;48553;50.766;2.900;2023-01-08T04:04:58;99456.03;;;7.69;92.54
60852;BME280;48553;50.766;2.900;2023-01-08T04:07:59;99456.41;;;7.68;92.79
60852;BME280;48553;50.766;2.900;2023-01-08T04:10:59;99459.94;;;7.68;92.70
60852;BME280;48553;50.766;2.900;2023-01-08T04:14:00;99453.31;;;7.69;92.57
60852;BME280;48553;50.766;2.900;2023-01-08T04:17:00;99452.44;;;7.65;92.30
60852;BME280;48553;50.766;2.900;2023-01-08T04:20:00;99442.66;;;7.64;92.64
60852;BME280;48553;50.766;2.900;2023-01-08T04:23:01;99436.75;;;7.62;92.74
60852;BME280;48553;50.766;2.900;2023-01-08T04:26:06;99430.97;;;7.64;92.58
60852;BME280;48553;50.766;2.900;2023-01-08T04:29:07;99436.69;;;7.59;92.55
60852;BME280;48553;50.766;2.900;2023-01-08T04:32:07;99421.44;;;7.58;92.64
60852;BME280;48553;50.766;2.900;2023-01-08T04:35:08;99423.06;;;7.59;92.71
60852;BME280;48553;50.766;2.900;2023-01-08T04:38:08;99429.88;;;7.52;93.00
60852;BME280;48553;50.766;2.900;2023-01-08T04:41:09;99419.88;;;7.57;92.58
60852;BME280;48553;50.766;2.900;2023-01-08T04:44:09;99421.00;;;7.56;92.68
60852;BME280;48553;50.766;2.900;2023-01-08T04:47:10;99434.56;;;7.52;92.61
60852;BME280;48553;50.766;2.900;2023-01-08T04:50:10;99438.53;;;7.55;92.61
60852;BME280;48553;50.766;2.900;2023-01-08T04:53:11;99432.16;;;7.50;92.87
60852;BME280;48553;50.766;2.900;2023-01-08T04:56:12;99432.16;;;7.50;92.88
60852;BME280;48553;50.766;2.900;2023-01-08T04:59:12;99430.16;;;7.47;92.98
60852;BME280;48553;50.766;2.900;2023-01-08T05:02:13;99418.88;;;7.49;92.58
60852;BME280;48553;50.766;2.900;2023-01-08T05:05:13;99423.88;;;7.47;92.68
60852;BME280;48553;50.766;2.900;2023-01-08T05:08:13;99431.28;;;7.46;92.84
60852;BME280;48553;50.766;2.900;2023-01-08T05:11:14;99422.31;;;7.46;92.72
60852;BME280;48553;50.766;2.900;2023-01-08T05:14:16;99412.44;;;7.41;92.70
60852;BME280;48553;50.766;2.900;2023-01-08T05:17:16;99409.47;;;7.46;92.98
60852;BME280;48553;50.766;2.900;2023-01-08T05:20:16;99399.28;;;7.43;92.90
60852;BME280;48553;50.766;2.900;2023-01-08T05:23:17;99387.91;;;7.41;92.79
60852;BME280;48553;50.766;2.900;2023-01-08T05:26:17;99382.91;;;7.43;92.94
60852;BME280;48553;50.766;2.900;2023-01-08T05:29:18;99380.78;;;7.37;93.10
60852;BME280;48553;50.766;2.900;2023-01-08T05:32:19;99374.19;;;7.38;92.83
60852;BME280;48553;50.766;2.900;2023-01-08T05:35:19;99362.50;;;7.37;92.91
60852;BME280;48553;50.766;2.900;2023-01-08T05:38:19;99374.19;;;7.38;92.83
60852;BME280;48553;50.766;2.900;2023-01-08T05:41:20;99369.53;;;7.38;93.09
60852;BME280;48553;50.766;2.900;2023-01-08T05:44:20;99366.00;;;7.38;92.90
60852;BME280;48553;50.766;2.900;2023-01-08T05:47:21;99388.16;;;7.36;93.21
60852;BME280;48553;50.766;2.900;2023-01-08T05:50:21;99370.22;;;7.35;92.59
60852;BME280;48553;50.766;2.900;2023-01-08T05:53:22;99380.34;;;7.35;93.13
60852;BME280;48553;50.766;2.900;2023-01-08T05:56:22;99373.19;;;7.30;93.30
60852;BME280;48553;50.766;2.900;2023-01-08T05:59:22;99370.13;;;7.31;93.19
60852;BME280;48553;50.766;2.900;2023-01-08T06:02:23;99375.22;;;7.33;93.28
60852;BME280;48553;50.766;2.900;2023-01-08T06:05:23;99383.31;;;7.29;93.22
60852;BME280;48553;50.766;2.900;2023-01-08T06:08:24;99382.63;;;7.32;93.50
60852;BME280;48553;50.766;2.900;2023-01-08T06:11:24;99383.66;;;7.28;93.35
60852;BME280;48553;50.766;2.900;2023-01-08T06:14:25;99390.34;;;7.30;93.30
60852;BME280;48553;50.766;2.900;2023-01-08T06:17:25;99398.06;;;7.28;93.51
60852;BME280;48553;50.766;2.900;2023-01-08T06:20:25;99390.34;;;7.30;93.62
60852;BME280;48553;50.766;2.900;2023-01-08T06:27:29;99396.94;;;7.29;93.20
60852;BME280;48553;50.766;2.900;2023-01-08T06:30:29;99395.00;;;7.30;93.30
60852;BME280;48553;50.766;2.900;2023-01-08T06:33:30;99389.22;;;7.31;93.30
60852;BME280;48553;50.766;2.900;2023-01-08T06:36:30;99385.94;;;7.26;93.47
60852;BME280;48553;50.766;2.900;2023-01-08T06:39:31;99385.94;;;7.26;93.69
60852;BME280;48553;50.766;2.900;2023-01-08T06:42:31;99390.16;;;7.23;93.82
60852;BME280;48553;50.766;2.900;2023-01-08T06:45:32;99385.59;;;7.27;93.35
60852;BME280;48553;50.766;2.900;2023-01-08T06:48:32;99383.66;;;7.28;93.58
60852;BME280;48553;50.766;2.900;2023-01-08T06:51:33;99384.44;;;7.28;93.65
60852;BME280;48553;50.766;2.900;2023-01-08T06:54:34;99384.00;;;7.26;93.73
60852;BME280;48553;50.766;2.900;2023-01-08T06:57:34;99392.16;;;7.26;93.84
60852;BME280;48553;50.766;2.900;2023-01-08T07:00:34;99379.69;;;7.25;93.98
60852;BME280;48553;50.766;2.900;2023-01-08T07:03:35;99386.72;;;7.26;93.92
60852;BME280;48553;50.766;2.900;2023-01-08T07:06:35;99382.75;;;7.24;94.05
60852;BME280;48553;50.766;2.900;2023-01-08T07:09:36;99374.50;;;7.20;94.50
60852;BME280;48553;50.766;2.900;2023-01-08T07:12:36;99382.41;;;7.25;94.23
60852;BME280;48553;50.766;2.900;2023-01-08T07:15:41;99371.53;;;7.25;94.34
60852;BME280;48553;50.766;2.900;2023-01-08T07:18:41;99374.59;;;7.24;94.50
60852;BME280;48553;50.766;2.900;2023-01-08T07:21:42;99368.34;;;7.23;94.51
60852;BME280;48553;50.766;2.900;2023-01-08T07:24:42;99359.03;;;7.24;94.37
60852;BME280;48553;50.766;2.900;2023-01-08T07:27:42;99359.47;;;7.26;94.59
60852;BME280;48553;50.766;2.900;2023-01-08T07:30:43;99355.06;;;7.22;94.65
60852;BME280;48553;50.766;2.900;2023-01-08T07:33:43;99365.28;;;7.25;94.50
60852;BME280;48553;50.766;2.900;2023-01-08T07:36:45;99360.50;;;7.22;94.64
60852;BME280;48553;50.766;2.900;2023-01-08T07:39:45;99371.78;;;7.20;94.66
60852;BME280;48553;50.766;2.900;2023-01-08T07:42:46;99362.44;;;7.21;94.49
60852;BME280;48553;50.766;2.900;2023-01-08T07:45:46;99368.34;;;7.23;94.30
60852;BME280;48553;50.766;2.900;2023-01-08T07:48:47;99365.63;;;7.23;94.38
60852;BME280;48553;50.766;2.900;2023-01-08T07:51:50;99365.97;;;7.22;94.77
60852;BME280;48553;50.766;2.900;2023-01-08T07:54:51;99369.50;;;7.22;94.83
60852;BME280;48553;50.766;2.900;2023-01-08T07:57:51;99374.59;;;7.24;94.35
60852;BME280;48553;50.766;2.900;2023-01-08T08:00:52;99363.00;;;7.27;94.32
60852;BME280;48553;50.766;2.900;2023-01-08T08:03:53;99362.13;;;7.23;94.63
60852;BME280;48553;50.766;2.900;2023-01-08T08:06:53;99369.13;;;7.24;94.49
60852;BME280;48553;50.766;2.900;2023-01-08T08:09:54;99340.75;;;7.25;94.60
60852;BME280;48553;50.766;2.900;2023-01-08T08:12:54;99352.00;;;7.23;94.74
60852;BME280;48553;50.766;2.900;2023-01-08T08:16:00;99346.09;;;7.21;94.62
60852;BME280;48553;50.766;2.900;2023-01-08T08:19:00;99349.19;;;7.36;94.10
60852;BME280;48553;50.766;2.900;2023-01-08T08:22:01;99351.00;;;7.60;92.96
60852;BME280;48553;50.766;2.900;2023-01-08T08:25:01;99346.53;;;7.67;92.09
60852;BME280;48553;50.766;2.900;2023-01-08T08:28:02;99344.59;;;7.52;92.89
60852;BME280;48553;50.766;2.900;2023-01-08T08:31:02;99338.84;;;7.41;93.69
60852;BME280;48553;50.766;2.900;2023-01-08T08:34:03;99336.84;;;7.38;93.88
60852;BME280;48553;50.766;2.900;2023-01-08T08:37:06;99344.19;;;7.38;93.83
60852;BME280;48553;50.766;2.900;2023-01-08T08:40:08;99341.59;;;7.41;94.01
60852;BME280;48553;50.766;2.900;2023-01-08T08:43:08;99342.72;;;7.40;93.91
60852;BME280;48553;50.766;2.900;2023-01-08T08:46:09;99344.66;;;7.40;94.46
60852;BME280;48553;50.766;2.900;2023-01-08T08:49:09;99337.69;;;7.42;94.28
60852;BME280;48553;50.766;2.900;2023-01-08T08:52:10;99350.66;;;7.45;94.35
60852;BME280;48553;50.766;2.900;2023-01-08T08:55:11;99339.31;;;7.43;94.23
60852;BME280;48553;50.766;2.900;2023-01-08T08:58:18;99335.00;;;7.74;93.42
60852;BME280;48553;50.766;2.900;2023-01-08T09:01:18;99322.53;;;8.75;88.88
60852;BME280;48553;50.766;2.900;2023-01-08T09:04:18;99315.41;;;9.75;83.75
60852;BME280;48553;50.766;2.900;2023-01-08T09:07:19;99313.03;;;10.23;81.18
60852;BME280;48553;50.766;2.900;2023-01-08T09:10:21;99310.66;;;10.45;80.12
60852;BME280;48553;50.766;2.900;2023-01-08T09:13:22;99307.47;;;10.43;80.14
60852;BME280;48553;50.766;2.900;2023-01-08T09:16:22;99309.81;;;10.41;79.86
60852;BME280;48553;50.766;2.900;2023-01-08T09:19:22;99314.59;;;10.48;80.14
60852;BME280;48553;50.766;2.900;2023-01-08T09:22:23;99310.59;;;10.41;80.58
60852;BME280;48553;50.766;2.900;2023-01-08T09:25:23;99319.47;;;10.31;81.22
60852;BME280;48553;50.766;2.900;2023-01-08T09:28:24;99302.22;;;10.31;81.29
60852;BME280;48553;50.766;2.900;2023-01-08T09:31:25;99304.16;;;10.30;81.25
60852;BME280;48553;50.766;2.900;2023-01-08T09:34:26;99307.69;;;10.31;81.66
60852;BME280;48553;50.766;2.900;2023-01-08T09:37:26;99316.97;;;10.26;82.07
60852;BME280;48553;50.766;2.900;2023-01-08T09:40:43;99318.06;;;10.18;nan
60852;BME280;48553;50.766;2.900;2023-01-08T09:43:47;99310.69;;;10.22;82.62
60852;BME280;48553;50.766;2.900;2023-01-08T09:46:49;99310.25;;;10.20;83.00
60852;BME280;48553;50.766;2.900;2023-01-08T09:49:51;99300.13;;;10.24;83.00
60852;BME280;48553;50.766;2.900;2023-01-08T09:52:54;99303.28;;;10.26;82.78
60852;BME280;48553;50.766;2.900;2023-01-08T09:55:58;99315.53;;;10.32;82.75
60852;BME280;48553;50.766;2.900;2023-01-08T09:59:02;99319.34;;;10.28;83.57
60852;BME280;48553;50.766;2.900;2023-01-08T10:02:03;99314.00;;;10.35;83.19
60852;BME280;48553;50.766;2.900;2023-01-08T10:05:11;99306.31;;;10.44;82.58
60852;BME280;48553;50.766;2.900;2023-01-08T10:08:13;99311.88;;;10.51;82.62
60852;BME280;48553;50.766;2.900;2023-01-08T10:11:14;99305.72;;;10.58;82.59
60852;BME280;48553;50.766;2.900;2023-01-08T10:14:29;99312.78;;;10.59;82.46
60852;BME280;48553;50.766;2.900;2023-01-08T10:17:38;99309.16;;;10.81;81.86
60852;BME280;48553;50.766;2.900;2023-01-08T10:20:39;99301.47;;;10.94;81.62
60852;BME280;48553;50.766;2.900;2023-01-08T10:23:51;99293.03;;;11.10;81.22
60852;BME280;48553;50.766;2.900;2023-01-08T10:26:51;99294.31;;;11.20;80.94
60852;BME280;48553;50.766;2.900;2023-01-08T10:29:52;99297.50;;;11.25;80.95
60852;BME280;48553;50.766;2.900;2023-01-08T10:32:54;99280.28;;;11.28;80.90
60852;BME280;48553;50.766;2.900;2023-01-08T10:36:03;99298.00;;;11.35;80.99
60852;BME280;48553;50.766;2.900;2023-01-08T10:39:05;99275.31;;;11.38;80.88
60852;BME280;48553;50.766;2.900;2023-01-08T10:42:06;99284.75;;;11.40;81.28
60852;BME280;48553;50.766;2.900;2023-01-08T10:45:22;99267.94;;;11.49;80.81
60852;BME280;48553;50.766;2.900;2023-01-08T10:48:31;99280.63;;;11.64;80.50
60852;BME280;48553;50.766;2.900;2023-01-08T10:51:32;99265.75;;;11.69;80.47
60852;BME280;48553;50.766;2.900;2023-01-08T10:54:36;99268.56;;;11.76;80.23
60852;BME280;48553;50.766;2.900;2023-01-08T10:57:39;99259.19;;;11.81;80.04
60852;BME280;48553;50.766;2.900;2023-01-08T11:00:41;99255.28;;;11.82;79.79
60852;BME280;48553;50.766;2.900;2023-01-08T11:03:41;99240.78;;;11.85;80.21
60852;BME280;48553;50.766;2.900;2023-01-08T11:06:42;99242.00;;;11.87;80.22
60852;BME280;48553;50.766;2.900;2023-01-08T11:09:48;99254.88;;;11.80;80.47
60852;BME280;48553;50.766;2.900;2023-01-08T11:12:56;99254.31;;;11.60;81.17
60852;BME280;48553;50.766;2.900;2023-01-08T11:16:07;99244.69;;;11.80;80.48
60852;BME280;48553;50.766;2.900;2023-01-08T11:19:31;99239.97;;;11.81;80.95
60852;BME280;48553;50.766;2.900;2023-01-08T11:22:32;99240.38;;;11.83;81.32
60852;BME280;48553;50.766;2.900;2023-01-08T11:25:34;99226.19;;;11.70;81.85
60852;BME280;48553;50.766;2.900;2023-01-08T11:28:52;99234.84;;;11.76;81.91
60852;BME280;48553;50.766;2.900;2023-01-08T11:38:35;99212.44;;;11.66;81.92
60852;BME280;48553;50.766;2.900;2023-01-08T11:51:49;99200.31;;;11.67;83.03
60852;BME280;48553;50.766;2.900;2023-01-08T12:07:41;99174.69;;;11.04;83.47
60852;BME280;48553;50.766;2.900;2023-01-08T12:20:34;99149.81;;;10.83;84.70
60852;BME280;48553;50.766;2.900;2023-01-08T12:23:46;99157.25;;;10.79;84.72
60852;BME280;48553;50.766;2.900;2023-01-08T12:33:50;99134.84;;;10.70;84.97
60852;BME280;48553;50.766;2.900;2023-01-08T12:37:02;99142.25;;;10.69;85.10
60852;BME280;48553;50.766;2.900;2023-01-08T12:40:22;99123.13;;;10.76;85.03
60852;BME280;48553;50.766;2.900;2023-01-08T12:43:47;99099.59;;;10.68;85.22
60852;BME280;48553;50.766;2.900;2023-01-08T12:46:51;99103.56;;;10.74;85.18
60852;BME280;48553;50.766;2.900;2023-01-08T12:50:01;99107.50;;;10.80;85.14
60852;BME280;48553;50.766;2.900;2023-01-08T12:56:15;99094.28;;;10.90;85.05
60852;BME280;48553;50.766;2.900;2023-01-08T12:59:31;99083.63;;;10.81;85.06
60852;BME280;48553;50.766;2.900;2023-01-08T13:05:49;99078.19;;;10.84;84.94
60852;BME280;48553;50.766;2.900;2023-01-08T13:08:54;99080.94;;;10.84;85.07
60852;BME280;48553;50.766;2.900;2023-01-08T13:11:55;99056.69;;;10.86;85.01
60852;BME280;48553;50.766;2.900;2023-01-08T13:14:56;99066.50;;;10.91;84.86
60852;BME280;48553;50.766;2.900;2023-01-08T13:18:02;99062.63;;;10.96;84.84
60852;BME280;48553;50.766;2.900;2023-01-08T13:21:06;99051.28;;;10.97;84.54
60852;BME280;48553;50.766;2.900;2023-01-08T13:24:36;99036.75;;;10.93;84.67
60852;BME280;48553;50.766;2.900;2023-01-08T13:27:37;99040.59;;;10.81;85.04
60852;BME280;48553;50.766;2.900;2023-01-08T13:30:39;99029.97;;;10.76;85.28
60852;BME280;48553;50.766;2.900;2023-01-08T13:33:41;99022.88;;;10.72;85.35
60852;BME280;48553;50.766;2.900;2023-01-08T13:36:54;99013.81;;;10.64;85.54
60852;BME280;48553;50.766;2.900;2023-01-08T13:39:54;99018.13;;;10.61;85.54
60852;BME280;48553;50.766;2.900;2023-01-08T13:42:58;99004.38;;;10.54;85.41
60852;BME280;48553;50.766;2.900;2023-01-08T13:52:47;98988.13;;;10.35;86.29
60852;BME280;48553;50.766;2.900;2023-01-08T13:56:06;98985.75;;;10.30;86.37
60852;BME280;48553;50.766;2.900;2023-01-08T13:59:33;98980.31;;;10.33;86.64
60852;BME280;48553;50.766;2.900;2023-01-08T14:02:44;98970.84;;;10.27;86.21
60852;BME280;48553;50.766;2.900;2023-01-08T14:05:49;98959.06;;;10.23;86.24
60852;BME280;48553;50.766;2.900;2023-01-08T14:08:55;98955.53;;;10.22;86.46
60852;BME280;48553;50.766;2.900;2023-01-08T14:11:56;98955.50;;;10.19;86.37
60852;BME280;48553;50.766;2.900;2023-01-08T14:14:57;98946.47;;;10.15;86.63
60852;BME280;48553;50.766;2.900;2023-01-08T14:18:00;98947.22;;;10.12;86.81
60852;BME280;48553;50.766;2.900;2023-01-08T14:21:01;98931.19;;;10.10;86.92
60852;BME280;48553;50.766;2.900;2023-01-08T14:24:03;98928.38;;;10.03;86.84
60852;BME280;48553;50.766;2.900;2023-01-08T14:27:03;98923.25;;;9.98;86.99
60852;BME280;48553;50.766;2.900;2023-01-08T14:30:14;98933.38;;;9.94;87.10
60852;BME280;48553;50.766;2.900;2023-01-08T14:33:15;98920.41;;;9.87;87.33
60852;BME280;48553;50.766;2.900;2023-01-08T14:36:16;98922.72;;;9.85;87.39
60852;BME280;48553;50.766;2.900;2023-01-08T14:39:24;98925.09;;;9.87;87.08
60852;BME280;48553;50.766;2.900;2023-01-08T14:42:32;98913.69;;;9.81;87.43
60852;BME280;48553;50.766;2.900;2023-01-08T14:45:49;98906.25;;;9.78;87.50
60852;BME280;48553;50.766;2.900;2023-01-08T14:48:51;98906.25;;;9.78;87.65
60852;BME280;48553;50.766;2.900;2023-01-08T14:51:55;98910.56;;;9.79;87.70
60852;BME280;48553;50.766;2.900;2023-01-08T14:54:58;98910.53;;;9.75;87.68
60852;BME280;48553;50.766;2.900;2023-01-08T14:58:11;98907.75;;;9.72;87.67
60852;BME280;48553;50.766;2.900;2023-01-08T15:01:21;98900.34;;;9.72;87.83
60852;BME280;48553;50.766;2.900;2023-01-08T15:04:23;98894.47;;;9.70;87.94
60852;BME280;48553;50.766;2.900;2023-01-08T15:07:25;98901.41;;;9.64;88.02
60852;BME280;48553;50.766;2.900;2023-01-08T15:10:35;98893.97;;;9.61;88.35
60852;BME280;48553;50.766;2.900;2023-01-08T15:13:36;98898.63;;;9.60;88.32
60852;BME280;48553;50.766;2.900;2023-01-08T15:16:39;98889.25;;;9.58;88.55
60852;BME280;48553;50.766;2.900;2023-01-08T15:19:46;98890.06;;;9.62;88.62
60852;BME280;48553;50.766;2.900;2023-01-08T15:22:48;98886.91;;;9.60;88.70
60852;BME280;48553;50.766;2.900;2023-01-08T15:25:50;98877.94;;;9.59;88.69
60852;BME280;48553;50.766;2.900;2023-01-08T15:28:58;98877.09;;;9.55;88.74
60852;BME280;48553;50.766;2.900;2023-01-08T15:35:16;98892.72;;;9.55;89.00
60852;BME280;48553;50.766;2.900;2023-01-08T15:38:17;98879.81;;;9.52;88.70
60852;BME280;48553;50.766;2.900;2023-01-08T15:41:23;98879.41;;;9.50;88.99
60852;BME280;48553;50.766;2.900;2023-01-08T15:44:42;98872.31;;;9.45;89.00
60852;BME280;48553;50.766;2.900;2023-01-08T15:47:43;98867.22;;;9.44;89.17
60852;BME280;48553;50.766;2.900;2023-01-08T15:50:43;98854.75;;;9.46;88.96
60852;BME280;48553;50.766;2.900;2023-01-08T15:53:44;98860.97;;;9.43;89.11
60852;BME280;48553;50.766;2.900;2023-01-08T15:56:45;98847.31;;;9.43;89.15
60852;BME280;48553;50.766;2.900;2023-01-08T15:59:45;98837.91;;;9.40;89.16
60852;BME280;48553;50.766;2.900;2023-01-08T16:02:47;98842.56;;;9.40;89.21
60852;BME280;48553;50.766;2.900;2023-01-08T16:05:48;98835.53;;;9.39;89.13
60852;BME280;48553;50.766;2.900;2023-01-08T16:08:48;98829.25;;;9.35;89.19
60852;BME280;48553;50.766;2.900;2023-01-08T16:11:49;98832.75;;;9.35;89.55
60852;BME280;48553;50.766;2.900;2023-01-08T16:14:49;98814.78;;;9.34;89.24
60852;BME280;48553;50.766;2.900;2023-01-08T16:17:49;98819.47;;;9.34;89.29
60852;BME280;48553;50.766;2.900;2023-01-08T16:20:58;98807.75;;;9.33;89.40
60852;BME280;48553;50.766;2.900;2023-01-08T16:23:59;98807.75;;;9.33;89.13
60852;BME280;48553;50.766;2.900;2023-01-08T16:26:59;98796.41;;;9.31;89.41
60852;BME280;48553;50.766;2.900;2023-01-08T16:30:00;98785.84;;;9.30;89.24
60852;BME280;48553;50.766;2.900;2023-01-08T16:33:00;98776.03;;;9.25;89.52
60852;BME280;48553;50.766;2.900;2023-01-08T16:36:03;98772.94;;;9.27;89.63
60852;BME280;48553;50.766;2.900;2023-01-08T16:39:04;98783.06;;;9.26;89.53
60852;BME280;48553;50.766;2.900;2023-01-08T16:42:05;98774.44;;;9.24;89.61
60852;BME280;48553;50.766;2.900;2023-01-08T16:45:06;98753.34;;;9.21;89.40
60852;BME280;48553;50.766;2.900;2023-01-08T16:48:07;98759.16;;;9.16;89.56
60852;BME280;48553;50.766;2.900;2023-01-08T16:51:08;98758.78;;;9.17;89.49
60852;BME280;48553;50.766;2.900;2023-01-08T16:54:13;98741.59;;;9.17;89.50
60852;BME280;48553;50.766;2.900;2023-01-08T16:57:14;98750.91;;;9.12;89.45
60852;BME280;48553;50.766;2.900;2023-01-08T17:00:15;98748.19;;;9.12;89.40
60852;BME280;48553;50.766;2.900;2023-01-08T17:03:15;98744.25;;;9.10;89.33
60852;BME280;48553;50.766;2.900;2023-01-08T17:06:16;98751.25;;;9.07;89.36
60852;BME280;48553;50.766;2.900;2023-01-08T17:09:16;98737.97;;;9.06;89.40
60852;BME280;48553;50.766;2.900;2023-01-08T17:12:16;98737.59;;;9.07;89.04
60852;BME280;48553;50.766;2.900;2023-01-08T17:15:21;98734.44;;;9.02;89.02
60852;BME280;48553;50.766;2.900;2023-01-08T17:18:21;98736.34;;;9.01;89.32
60852;BME280;48553;50.766;2.900;2023-01-08T17:21:22;98734.00;;;8.99;89.11
60852;BME280;48553;50.766;2.900;2023-01-08T17:24:23;98725.41;;;8.97;89.28
60852;BME280;48553;50.766;2.900;2023-01-08T17:27:23;98725.00;;;8.95;89.11
60852;BME280;48553;50.766;2.900;2023-01-08T17:30:24;98725.78;;;8.96;89.19